To NAV CANADA Home Page Login to a new session Search on AWWS site Disclaimer Vers la page française équivalente Tips FAQ What's new on the site To the Forecasts and Observations / NOTAM section To "File a Flight Plan" website Publications and other links Update of the User's profile FIC Telephone Numbers My Weather Data Folder Route Weather Data Regional Weather Data Local Weather Data To the Forecasts and Observations / NOTAM section
Request Generated 04/22/2019 at 12:06:44 UTC . Weather information available at that time is displayed.


Go to a specific product

Save this request - Inactive

METAR/TAF

OTTAWA/MACDONALD-CARTIER INTL/ON    

METAR CYOW 221200Z 32009KT 310V010 15SM SCT095 06/05 A3026 RMK AC4 SLP251=
METAR CYOW 221100Z 06004KT 15SM BKN096 06/05 A3023 RMK AC7 SLP240=
METAR CYOW 221000Z 31004KT 15SM R32/2400VP6000FT/N PRFG FEW026 FEW095 04/03 A3022 RMK SC1AC2 SC TR SLP238=

TAF CYOW 221139Z 2212/2312 06005KT P6SM BKN100
BECMG 2212/2214 03008KT FEW030 SCT100
FM222200 03012KT P6SM FEW100
FM230900 06008KT P6SM BKN090
RMK NXT FCST BY 221500Z=

OTTAWA/GATINEAU/QC    

METAR CYND 221200Z VRB02KT 15SM SCT094 04/04 A3026 RMK AC3 SLP251=
METAR CYND 221100Z 08003KT 15SM FEW001 BKN095 01/01 A3023 RMK SF1AC7 SF TR SLP242=
LWIS CYND 221000Z AUTO 32003KT 310V010 01/01 A3022=

*** REMARK        : Forecast period has ended; this was the last TAF issued
*** REMARQUE : La période de prévision est échue; ceci était le dernier TAF qui a été émis
TAF AMD CYND 212146Z 2121/2201 30007KT P6SM BKN025 TEMPO 2121/2201
OVC020
BECMG 2123/2201 36005KT
RMK NXT FCST WILL BE ISSUED AT 221245Z=


GRAPHICAL FA CLOUDS & WEATHER FORECASTS
To the Product Selector
Graphical FA gfacn33      

GRAPHICAL FA ICING, TURBULENCE & FREEZING LEVEL FORECASTS
To the Product Selector
Graphical FA gfacn33      

Your time UTC time
Weather data provided by Environment Canada and NAV CANADA